Time;durP1;ratioP1;P1;durP2;ratioP2;P2;SDS_P1;SDS_P2;PMS_P1;PMS_P2;Temp;Humidity;BMP_temperature;BMP_pressure;BME280_temperature;BME280_humidity;BME280_pressure;Samples;Min_cycle;Max_cycle;Signal;HPM_P1;HPM_P2
2022/02/11 00:02:15;;;;;;;6.13;2.93;;;;;;;4.14;80.01;101188.44;5055680;28;20469;-68
2022/02/11 00:07:25;;;;;;;4.77;3.50;;;;;;;4.15;80.88;101182.25;5050307;28;20685;-68
2022/02/11 00:09:52;;;;;;;6.87;3.50;;;;;;;4.16;81.04;101180.50;5062020;28;20658;-68
2022/02/11 00:12:19;;;;;;;7.63;3.70;;;;;;;4.16;80.82;101186.63;5062131;28;20294;-68
2022/02/11 00:14:54;;;;;;;5.13;3.57;;;;;;;4.16;81.38;101186.63;5054800;28;20703;-68
2022/02/11 00:17:21;;;;;;;4.83;3.70;;;;;;;4.15;80.81;101182.25;5063270;28;20229;-68
2022/02/11 00:19:48;;;;;;;5.47;3.70;;;;;;;4.14;81.29;101185.81;5066074;28;20292;-69
2022/02/11 00:22:15;;;;;;;5.77;3.83;;;;;;;4.14;81.54;101177.91;5063579;28;20296;-67
2022/02/11 00:24:41;;;;;;;6.27;4.60;;;;;;;4.14;81.56;101177.03;5065061;28;20718;-68
2022/02/11 00:27:41;;;;;;;5.17;3.77;;;;;;;4.12;81.80;101179.72;5065548;28;20303;-67
2022/02/11 00:32:56;;;;;;;9.50;4.40;;;;;;;4.10;82.19;101184.19;5018197;28;20230;-68
2022/02/11 00:35:29;;;;;;;7.07;5.10;;;;;;;4.10;81.99;101178.06;5066095;28;20205;-68
2022/02/11 00:37:57;;;;;;;7.43;4.57;;;;;;;4.08;82.10;101170.19;5062884;28;20225;-67
2022/02/11 00:40:43;;;;;;;6.57;4.90;;;;;;;4.08;82.59;101170.19;5053664;28;20215;-68
2022/02/11 00:46:11;;;;;;;9.70;4.90;;;;;;;4.08;82.69;101164.91;5057198;28;20723;-68
2022/02/11 01:02:33;;;;;;;6.50;4.43;;;;;;;4.04;83.50;101163.25;5049401;28;20205;-68
2022/02/11 01:05:00;;;;;;;11.33;4.93;;;;;;;4.04;83.59;101162.41;5049725;28;20312;-68
2022/02/11 01:07:26;;;;;;;9.50;4.60;;;;;;;4.03;83.80;101164.16;5050398;28;20261;-68
2022/02/11 01:09:53;;;;;;;7.77;4.37;;;;;;;4.03;83.58;101161.53;5051277;28;20244;-67
2022/02/11 01:12:20;;;;;;;8.97;5.20;;;;;;;4.02;83.58;101157.16;5047486;28;20267;-68
2022/02/11 01:14:50;;;;;;;10.27;4.97;;;;;;;4.03;83.40;101163.31;5054278;28;20233;-68
2022/02/11 01:17:27;;;;;;;6.50;4.33;;;;;;;4.02;83.86;101157.16;5049923;28;20316;-67
2022/02/11 01:20:01;;;;;;;7.47;4.37;;;;;;;4.01;83.05;101158.06;5043799;28;20216;-68
2022/02/11 01:22:40;;;;;;;8.03;4.80;;;;;;;4.04;83.33;101163.25;5044510;28;20236;-68
2022/02/11 01:25:30;;;;;;;7.97;4.90;;;;;;;4.04;83.47;101162.41;5050466;28;20201;-68
2022/02/11 01:28:06;;;;;;;7.90;4.37;;;;;;;4.02;83.47;101151.91;5035238;28;20287;-68
2022/02/11 01:36:23;;;;;;;14.27;5.20;;;;;;;4.00;83.41;101158.97;5013933;28;20193;-68
2022/02/11 01:39:14;;;;;;;11.73;5.07;;;;;;;4.00;83.51;101158.13;5048119;28;20760;-68
2022/02/11 01:44:57;;;;;;;6.00;4.03;;;;;;;3.99;83.38;101154.63;5049590;28;21712;-68
2022/02/11 01:50:40;;;;;;;7.27;4.33;;;;;;;3.99;83.33;101151.13;4985933;28;20200;-68
2022/02/11 01:53:18;;;;;;;8.17;3.77;;;;;;;3.98;83.60;101147.63;4978274;28;20598;-68
2022/02/11 01:56:10;;;;;;;8.40;3.70;;;;;;;3.97;83.54;101143.25;5026653;28;20302;-68
2022/02/11 02:04:58;;;;;;;8.30;3.23;;;;;;;3.97;83.53;101145.03;5051495;28;20236;-68
2022/02/11 02:15:58;;;;;;;4.77;3.07;;;;;;;3.94;83.50;101138.06;5051068;28;20586;-68
2022/02/11 02:24:11;;;;;;;11.23;3.80;;;;;;;3.93;83.47;101132.88;5050915;28;20591;-68
2022/02/11 02:26:58;;;;;;;9.50;4.23;;;;;;;3.90;82.94;101123.28;5043668;28;20206;-68
2022/02/11 02:37:59;;;;;;;9.23;6.27;;;;;;;3.90;82.59;101099.56;5009080;28;20225;-69
2022/02/11 02:50:10;;;;;;;12.03;6.43;;;;;;;3.87;82.53;101104.91;4975702;28;20228;-69
2022/02/11 02:57:24;;;;;;;8.53;5.00;;;;;;;3.72;83.15;101090.41;5049511;28;20286;-68
2022/02/11 03:00:16;;;;;;;10.50;6.00;;;;;;;3.71;82.58;101086.03;5050307;28;20201;-69
2022/02/11 03:17:15;;;;;;;10.73;6.50;;;;;;;3.62;83.13;101095.94;5048551;28;20535;-68
2022/02/11 03:50:01;;;;;;;10.73;7.10;;;;;;;3.24;83.83;101096.97;5040360;28;20759;-68
2022/02/11 03:52:55;;;;;;;10.90;6.60;;;;;;;3.20;84.14;101095.34;5048685;28;20229;-68
2022/02/11 04:20:50;;;;;;;9.80;5.30;;;;;;;2.66;83.96;101101.94;5050605;28;20212;-68
2022/02/11 04:26:49;;;;;;;12.60;6.50;;;;;;;2.55;84.41;101093.44;5047437;28;20206;-68
2022/02/11 04:56:34;;;;;;;19.87;11.60;;;;;;;2.43;85.53;101081.44;5043929;28;20234;-69
2022/02/11 05:01:45;;;;;;;17.63;11.80;;;;;;;2.44;85.46;101080.53;5044300;28;20752;-69
2022/02/11 05:04:12;;;;;;;17.20;11.83;;;;;;;2.45;85.42;101084.03;5050768;28;20221;-69
2022/02/11 05:06:38;;;;;;;18.63;11.50;;;;;;;2.46;85.51;101070.00;5043089;28;20264;-69
2022/02/11 05:09:05;;;;;;;19.50;11.23;;;;;;;2.47;85.65;101074.34;5047915;28;20691;-69
2022/02/11 05:11:33;;;;;;;14.60;11.60;;;;;;;2.50;85.77;101069.03;5047507;28;20202;-69
2022/02/11 05:14:00;;;;;;;23.70;12.53;;;;;;;2.50;85.65;101063.78;5042348;28;20234;-69
2022/02/11 05:16:27;;;;;;;16.30;11.27;;;;;;;2.50;85.52;101053.25;5048055;28;20288;-69
2022/02/11 05:18:54;;;;;;;21.53;12.07;;;;;;;2.50;85.67;101058.50;5051064;28;20229;-69
2022/02/11 05:21:21;;;;;;;20.27;12.63;;;;;;;2.50;85.35;101055.03;5048391;28;20260;-69
2022/02/11 05:23:47;;;;;;;21.03;13.17;;;;;;;2.50;85.37;101049.75;5046849;28;20750;-69
2022/02/11 05:26:14;;;;;;;19.07;12.53;;;;;;;2.49;85.81;101051.53;5049351;28;20284;-69
2022/02/11 05:28:42;;;;;;;21.10;12.17;;;;;;;2.49;85.84;101050.66;5046147;28;20253;-69
2022/02/11 05:31:08;;;;;;;18.77;12.20;;;;;;;2.49;85.91;101053.28;5046347;28;20211;-68
2022/02/11 05:33:35;;;;;;;17.87;11.77;;;;;;;2.49;86.07;101062.03;5037584;28;20679;-69
2022/02/11 05:36:02;;;;;;;22.40;12.57;;;;;;;2.48;85.71;101065.56;5046791;28;20229;-69
2022/02/11 05:38:29;;;;;;;20.47;12.80;;;;;;;2.49;85.60;101062.03;5043797;28;20307;-69
2022/02/11 05:40:55;;;;;;;20.70;11.10;;;;;;;2.49;85.59;101055.91;5045823;28;20654;-69
2022/02/11 05:43:22;;;;;;;21.17;12.13;;;;;;;2.52;85.99;101066.34;5035997;28;20237;-69
2022/02/11 05:45:50;;;;;;;22.53;13.93;;;;;;;2.52;85.42;101071.59;5043824;28;20233;-69
2022/02/11 05:48:16;;;;;;;20.23;13.43;;;;;;;2.51;85.67;101057.59;5039253;28;20226;-69
2022/02/11 05:50:43;;;;;;;22.60;12.50;;;;;;;2.51;85.25;101049.69;5042139;28;20302;-69
2022/02/11 05:53:10;;;;;;;19.70;13.47;;;;;;;2.53;85.76;101052.28;5048692;28;20209;-69
2022/02/11 05:55:37;;;;;;;15.67;11.10;;;;;;;2.54;85.45;101052.25;5036833;28;20590;-69
2022/02/11 05:58:04;;;;;;;20.80;11.77;;;;;;;2.55;85.63;101045.22;5062517;22;20698;-71
2022/02/11 06:00:31;;;;;;;17.37;11.80;;;;;;;2.56;85.43;101046.97;5057697;28;21041;-72
2022/02/11 06:02:59;;;;;;;15.10;11.07;;;;;;;2.59;85.58;101047.75;5053631;28;20292;-72
2022/02/11 06:05:26;;;;;;;18.60;11.43;;;;;;;2.62;85.40;101047.69;5052539;28;20762;-72
2022/02/11 06:07:52;;;;;;;18.57;11.70;;;;;;;2.64;85.56;101029.25;5056216;28;20272;-72
2022/02/11 06:10:19;;;;;;;17.23;11.03;;;;;;;2.68;85.66;101037.03;5045305;28;20291;-71
2022/02/11 06:12:45;;;;;;;20.90;12.40;;;;;;;2.76;85.42;101049.97;5034993;28;20285;-71
2022/02/11 06:15:12;;;;;;;18.90;10.13;;;;;;;2.77;85.32;101039.41;5038854;28;20224;-71
2022/02/11 06:17:39;;;;;;;20.50;10.93;;;;;;;2.81;85.66;101036.72;5040189;28;20253;-70
2022/02/11 06:20:09;;;;;;;16.73;11.10;;;;;;;2.82;85.21;101025.28;5045478;28;20208;-70
2022/02/11 06:22:36;;;;;;;16.57;11.23;;;;;;;2.85;85.34;101020.81;5046611;28;20296;-70
2022/02/11 06:25:03;;;;;;;15.60;10.60;;;;;;;2.90;85.25;101026.81;5049649;28;20225;-70
2022/02/11 06:27:30;;;;;;;18.67;10.57;;;;;;;2.94;85.49;101025.84;5047953;28;20611;-70
2022/02/11 06:29:56;;;;;;;10.03;6.07;;;;;;;3.00;85.07;101020.41;5040325;28;20213;-72
2022/02/11 06:32:23;;;;;;;16.20;10.43;;;;;;;3.01;85.05;101039.69;5029655;28;20812;-72
2022/02/11 06:34:54;;;;;;;17.57;11.27;;;;;;;2.99;85.52;101036.25;5029485;28;20218;-73
2022/02/11 06:37:22;;;;;;;17.83;11.17;;;;;;;2.98;86.04;101045.03;5041029;28;20707;-72
2022/02/11 06:39:48;;;;;;;17.63;11.20;;;;;;;2.99;85.93;101044.13;5050019;28;20205;-72
2022/02/11 06:42:15;;;;;;;16.30;10.40;;;;;;;2.97;85.99;101032.78;5050891;28;20223;-73
2022/02/11 06:44:41;;;;;;;14.90;9.63;;;;;;;3.01;85.60;101050.22;5035427;28;20323;-73
2022/02/11 06:47:08;;;;;;;15.17;10.43;;;;;;;3.02;86.33;101051.97;5030634;28;20747;-73
2022/02/11 06:49:35;;;;;;;13.77;9.77;;;;;;;3.01;86.01;101050.22;5039670;28;20256;-73
2022/02/11 06:52:01;;;;;;;20.13;10.67;;;;;;;3.04;85.89;101044.91;5045163;28;20306;-71
2022/02/11 06:54:29;;;;;;;13.80;10.20;;;;;;;3.07;85.87;101060.56;5040601;28;20683;-73
2022/02/11 06:56:56;;;;;;;14.30;10.37;;;;;;;3.10;86.58;101050.84;5037837;28;20202;-73
2022/02/11 06:59:22;;;;;;;13.07;10.20;;;;;;;3.09;85.85;101054.38;5031238;28;20222;-72
2022/02/11 07:01:49;;;;;;;15.87;11.23;;;;;;;3.12;86.08;101048.16;5048998;28;20292;-73
2022/02/11 07:04:17;;;;;;;16.20;11.30;;;;;;;3.13;86.40;101065.69;5040622;28;20783;-71
2022/02/11 07:06:44;;;;;;;13.17;10.20;;;;;;;3.15;86.33;101061.25;5050200;28;20225;-73
2022/02/11 07:09:10;;;;;;;13.40;10.10;;;;;;;3.19;86.24;101078.69;5035203;28;20245;-72
2022/02/11 07:11:38;;;;;;;12.57;9.93;;;;;;;3.22;85.98;101075.13;5032340;28;20298;-73
2022/02/11 07:14:05;;;;;;;12.63;10.33;;;;;;;3.21;86.40;101062.88;5043410;28;20296;-72
2022/02/11 07:16:31;;;;;;;14.07;11.03;;;;;;;3.24;86.49;101068.03;5047953;28;20309;-73
2022/02/11 07:18:58;;;;;;;11.67;10.43;;;;;;;3.24;86.19;101061.00;5040964;28;20313;-73
2022/02/11 07:21:25;;;;;;;12.83;11.53;;;;;;;3.24;86.73;101060.13;5036103;28;20240;-72
2022/02/11 07:23:51;;;;;;;12.73;11.43;;;;;;;3.24;86.83;101079.41;5043109;28;20296;-73
2022/02/11 07:26:18;;;;;;;12.73;11.43;;;;;;;3.25;86.50;101081.16;5041151;28;20220;-72
2022/02/11 07:28:46;;;;;;;14.07;10.73;;;;;;;3.28;86.57;101077.56;5035676;28;20279;-72
2022/02/11 07:31:13;;;;;;;12.20;10.33;;;;;;;3.31;86.77;101065.19;5035529;28;20242;-73
2022/02/11 07:33:39;;;;;;;13.33;10.50;;;;;;;3.31;86.90;101077.50;5045688;28;20221;-73
2022/02/11 07:36:06;;;;;;;16.17;11.97;;;;;;;3.29;87.36;101074.91;5030117;28;20220;-73
2022/02/11 07:38:33;;;;;;;12.70;11.07;;;;;;;3.31;87.00;101073.09;5040574;28;20236;-72
2022/02/11 07:40:59;;;;;;;12.47;10.40;;;;;;;3.30;87.56;101084.53;5034308;28;20220;-73
2022/02/11 07:43:26;;;;;;;14.00;11.10;;;;;;;3.32;87.75;101077.47;5033109;28;20238;-73
2022/02/11 07:45:54;;;;;;;10.83;8.60;;;;;;;3.33;87.70;101075.69;5046511;28;20323;-73
2022/02/11 07:48:20;;;;;;;9.97;8.67;;;;;;;3.34;87.43;101087.94;5038310;28;20312;-72
2022/02/11 07:50:47;;;;;;;7.57;6.77;;;;;;;3.33;87.45;101094.13;5049338;28;20312;-72
2022/02/11 07:53:16;;;;;;;10.10;7.00;;;;;;;3.38;87.41;101087.84;5047947;28;20304;-74
2022/02/11 07:55:42;;;;;;;7.10;6.33;;;;;;;3.41;87.37;101087.72;5034760;28;20229;-72
2022/02/11 07:58:09;;;;;;;9.43;6.20;;;;;;;3.44;87.53;101092.91;5037519;28;20295;-73
2022/02/11 08:00:36;;;;;;;9.13;6.43;;;;;;;3.46;87.65;101096.38;5046511;28;20289;-73
2022/02/11 08:03:04;;;;;;;7.67;6.83;;;;;;;3.48;87.91;101096.34;5032293;28;21630;-73
2022/02/11 08:05:30;;;;;;;8.43;5.47;;;;;;;3.48;87.82;101098.97;5043004;28;20307;-74
2022/02/11 08:07:57;;;;;;;6.47;5.83;;;;;;;3.51;87.34;101113.81;5036344;28;20260;-73
2022/02/11 08:10:24;;;;;;;7.43;5.50;;;;;;;3.54;87.14;101111.13;5036916;28;20218;-72
2022/02/11 08:12:50;;;;;;;6.07;5.40;;;;;;;3.54;87.54;101109.34;5047447;28;20730;-72
2022/02/11 08:15:17;;;;;;;7.43;5.57;;;;;;;3.55;87.41;101115.47;5033376;28;20297;-74
2022/02/11 08:17:44;;;;;;;7.03;5.47;;;;;;;3.55;88.14;101115.47;5047207;28;20298;-73
2022/02/11 08:20:13;;;;;;;5.50;5.00;;;;;;;3.58;87.40;101120.66;5050057;28;20210;-72
2022/02/11 08:22:39;;;;;;;6.20;4.73;;;;;;;3.57;88.12;101125.06;5044618;28;20216;-72
2022/02/11 08:25:06;;;;;;;5.90;4.70;;;;;;;3.60;87.73;101119.69;5046132;28;20332;-73
2022/02/11 08:27:33;;;;;;;5.70;4.60;;;;;;;3.65;87.48;101119.56;5046579;28;20730;-72
2022/02/11 08:30:00;;;;;;;6.77;4.67;;;;;;;3.68;87.53;101124.78;5052052;28;20205;-72
2022/02/11 08:32:29;;;;;;;6.10;4.90;;;;;;;3.71;87.55;101129.97;5043123;28;20300;-73
2022/02/11 08:34:56;;;;;;;8.33;4.90;;;;;;;3.73;87.29;101133.41;5035432;28;20730;-72
2022/02/11 08:37:25;;;;;;;6.10;4.93;;;;;;;3.77;87.67;101130.63;5042684;28;20433;-73
2022/02/11 08:39:51;;;;;;;5.87;4.40;;;;;;;3.77;87.04;101130.63;5046814;28;20216;-72
2022/02/11 08:42:20;;;;;;;6.93;4.17;;;;;;;3.81;87.15;101134.91;5034797;28;20206;-72
2022/02/11 08:44:47;;;;;;;5.90;4.37;;;;;;;3.80;87.42;101137.59;5032778;28;20230;-73
2022/02/11 08:47:13;;;;;;;4.93;4.33;;;;;;;3.83;87.25;101132.25;5035389;28;20230;-73
2022/02/11 08:49:41;;;;;;;5.50;3.70;;;;;;;3.85;87.32;101130.44;5044230;28;20723;-73
2022/02/11 08:52:09;;;;;;;4.57;3.90;;;;;;;3.87;87.11;101133.91;5051104;28;20667;-73
2022/02/11 08:54:37;;;;;;;6.07;3.60;;;;;;;3.89;87.10;101134.72;5044130;28;20228;-73
2022/02/11 08:57:04;;;;;;;4.77;2.93;;;;;;;3.89;86.94;101141.75;5033218;28;20272;-72
2022/02/11 08:59:31;;;;;;;3.00;2.53;;;;;;;3.93;87.02;101133.72;5044248;28;20653;-72
2022/02/11 09:01:57;;;;;;;3.20;2.73;;;;;;;3.95;87.54;101138.94;5046444;28;20214;-73
2022/02/11 09:04:24;;;;;;;3.40;2.53;;;;;;;4.00;87.72;101140.53;5034073;28;20606;-73
2022/02/11 09:06:51;;;;;;;4.17;2.70;;;;;;;4.04;87.51;101143.94;5045687;28;20288;-73
2022/02/11 09:09:17;;;;;;;5.13;2.60;;;;;;;4.06;87.40;101148.28;5050107;28;20288;-72
2022/02/11 09:11:45;;;;;;;3.87;2.10;;;;;;;4.09;87.40;101144.69;5041533;28;20240;-73
2022/02/11 09:14:12;;;;;;;3.73;2.53;;;;;;;4.12;87.24;101149.88;5049198;28;20771;-72
2022/02/11 09:16:39;;;;;;;4.77;2.17;;;;;;;4.14;87.33;101138.34;5051805;28;20304;-73
2022/02/11 09:19:09;;;;;;;2.80;1.80;;;;;;;4.15;87.62;101155.03;5052192;28;20257;-72
2022/02/11 09:21:35;;;;;;;3.00;1.60;;;;;;;4.17;87.34;101159.38;5052093;28;20589;-72
2022/02/11 09:24:02;;;;;;;4.50;2.03;;;;;;;4.20;87.44;101158.41;5053073;28;20759;-73
2022/02/11 09:26:29;;;;;;;4.00;1.20;;;;;;;4.24;87.71;101159.19;5049060;28;20243;-73
2022/02/11 09:28:57;;;;;;;5.67;1.37;;;;;;;4.29;87.80;101159.94;5052194;28;20312;-73
2022/02/11 09:31:27;;;;;;;2.40;1.10;;;;;;;4.34;88.16;101171.19;5034560;28;20206;-74
2022/02/11 09:33:55;;;;;;;3.10;1.20;;;;;;;4.36;88.26;101170.25;5035482;28;20214;-73
2022/02/11 09:36:22;;;;;;;2.70;0.83;;;;;;;4.36;88.21;101172.00;5031383;28;20590;-73
2022/02/11 09:38:49;;;;;;;3.30;1.10;;;;;;;4.37;87.56;101166.69;5048954;28;20316;-73
2022/02/11 09:41:15;;;;;;;2.10;0.80;;;;;;;4.31;87.89;101161.59;5040615;28;20238;-72
2022/02/11 09:43:42;;;;;;;4.53;1.10;;;;;;;4.28;87.82;101158.22;5034897;28;20212;-74
2022/02/11 09:46:11;;;;;;;2.03;0.80;;;;;;;4.25;87.75;101187.28;5042329;28;20265;-73
2022/02/11 09:48:38;;;;;;;2.50;1.00;;;;;;;4.23;87.67;101186.47;5035591;28;20234;-72
2022/02/11 09:51:05;;;;;;;2.80;0.97;;;;;;;4.19;87.60;101170.72;5044701;28;20743;-73
2022/02/11 09:53:31;;;;;;;1.40;0.50;;;;;;;4.19;87.31;101193.59;5032183;28;20728;-73
2022/02/11 09:55:58;;;;;;;0.80;0.40;;;;;;;4.18;88.31;101191.88;5037100;28;20296;-75
2022/02/11 09:58:25;;;;;;;3.47;0.80;;;;;;;4.19;87.67;101204.13;5049967;28;20244;-73
2022/02/11 10:00:52;;;;;;;1.77;0.80;;;;;;;4.21;87.83;101201.47;5048930;28;20238;-73
2022/02/11 10:03:22;;;;;;;3.43;0.50;;;;;;;4.24;87.63;101214.56;5041689;28;20432;-73
2022/02/11 10:05:50;;;;;;;1.80;0.80;;;;;;;4.23;88.15;101220.75;5033198;28;20240;-73
2022/02/11 10:08:17;;;;;;;3.17;0.67;;;;;;;4.23;87.98;101218.09;5049872;28;20316;-75
2022/02/11 10:10:47;;;;;;;3.13;1.23;;;;;;;4.24;87.97;101225.97;5037937;28;20224;-73
2022/02/11 10:13:17;;;;;;;2.83;2.10;;;;;;;4.25;88.36;101243.53;5046349;28;20297;-73
2022/02/11 10:15:48;;;;;;;4.60;3.93;;;;;;;4.30;88.42;101238.13;5031810;28;20221;-73
2022/02/11 10:18:15;;;;;;;5.10;4.60;;;;;;;4.31;88.29;101250.38;5041487;28;20261;-73
2022/02/11 10:20:48;;;;;;;3.37;2.73;;;;;;;4.32;88.60;101255.63;5044719;28;20293;-73
2022/02/11 10:23:17;;;;;;;3.50;3.00;;;;;;;4.35;88.52;101234.44;5038034;28;20233;-74
2022/02/11 10:26:02;;;;;;;7.07;6.33;;;;;;;4.41;88.54;101259.78;5051028;28;20251;-73
2022/02/11 10:28:35;;;;;;;2.97;2.70;;;;;;;4.43;88.59;101269.38;5034634;28;20324;-73
2022/02/11 10:31:14;;;;;;;5.17;4.53;;;;;;;4.46;88.60;101268.44;5038065;28;20676;-73
2022/02/11 10:34:03;;;;;;;7.03;6.27;;;;;;;4.48;88.97;101279.78;5032468;28;20329;-73
2022/02/11 10:36:33;;;;;;;3.33;1.57;;;;;;;4.51;88.53;101277.06;5032070;28;20268;-72
2022/02/11 10:39:11;;;;;;;2.87;1.13;;;;;;;4.48;88.63;101283.28;5032897;28;20317;-74
2022/02/11 10:41:40;;;;;;;1.97;0.80;;;;;;;4.47;88.92;101281.59;5043238;28;20213;-74
2022/02/11 10:44:09;;;;;;;2.73;1.10;;;;;;;4.49;89.03;101294.69;5035862;28;20301;-72
2022/02/11 10:46:40;;;;;;;2.03;1.13;;;;;;;4.49;89.01;101298.19;5038455;28;20316;-73
2022/02/11 10:49:07;;;;;;;1.00;0.77;;;;;;;4.49;89.00;101305.25;5047908;28;20653;-74
2022/02/11 10:51:39;;;;;;;3.37;0.90;;;;;;;4.52;89.12;101308.66;5049459;28;20215;-74
2022/02/11 10:54:23;;;;;;;3.17;0.70;;;;;;;4.54;89.21;101311.25;5048484;28;20694;-72
2022/02/11 10:56:51;;;;;;;3.00;0.70;;;;;;;4.56;89.35;101312.09;5050602;28;20216;-73
2022/02/11 10:59:24;;;;;;;1.30;0.67;;;;;;;4.60;89.29;101329.56;5035782;28;20222;-73
2022/02/11 11:01:51;;;;;;;3.73;0.80;;;;;;;4.58;89.30;101320.84;5050977;28;20293;-74
2022/02/11 11:04:18;;;;;;;2.37;1.03;;;;;;;4.58;89.25;101318.19;5036612;28;20241;-72
2022/02/11 11:06:47;;;;;;;3.00;1.70;;;;;;;4.59;89.13;101321.69;5048539;28;20391;-72
2022/02/11 11:09:16;;;;;;;5.87;1.63;;;;;;;4.61;89.13;101325.16;5033000;28;20307;-72
2022/02/11 11:11:44;;;;;;;5.83;1.30;;;;;;;4.65;89.00;101334.72;5049045;28;20221;-74
2022/02/11 11:14:13;;;;;;;4.83;1.80;;;;;;;4.67;89.10;101341.66;5049888;28;20210;-73
2022/02/11 11:16:41;;;;;;;2.17;0.77;;;;;;;4.71;89.20;101335.41;5047499;28;20220;-71
2022/02/11 11:19:09;;;;;;;2.60;0.93;;;;;;;4.75;88.94;101347.59;5041602;28;20254;-70
2022/02/11 11:21:39;;;;;;;2.93;0.83;;;;;;;4.75;88.73;101342.34;5036864;28;20683;-70
2022/02/11 11:24:08;;;;;;;0.80;0.43;;;;;;;4.77;88.55;101350.22;5046849;28;20229;-70
2022/02/11 11:26:37;;;;;;;1.90;0.70;;;;;;;4.76;88.46;101354.63;5049064;28;20737;-71
2022/02/11 11:29:09;;;;;;;2.60;0.67;;;;;;;4.78;88.70;101368.63;5038688;28;20248;-70
2022/02/11 11:31:37;;;;;;;1.80;0.70;;;;;;;4.78;88.88;101368.63;5036397;28;20212;-70
2022/02/11 11:34:26;;;;;;;1.60;0.60;;;;;;;4.81;88.58;101391.44;5036308;28;20687;-70
2022/02/11 11:36:55;;;;;;;1.50;0.50;;;;;;;4.81;88.73;101394.94;5034639;28;20328;-71
2022/02/11 11:39:23;;;;;;;1.97;0.53;;;;;;;4.83;88.76;101392.28;5039909;28;20297;-70
2022/02/11 11:42:00;;;;;;;1.17;0.50;;;;;;;4.84;88.49;101389.56;5041112;28;20233;-70
2022/02/11 11:44:27;;;;;;;0.70;0.40;;;;;;;4.87;89.14;101401.81;5052628;28;20326;-71
2022/02/11 11:46:55;;;;;;;1.60;1.00;;;;;;;4.86;88.94;101402.72;5039496;28;20283;-70
2022/02/11 11:49:25;;;;;;;1.50;0.77;;;;;;;4.86;89.04;101414.13;5038316;28;20314;-71
2022/02/11 11:52:06;;;;;;;1.03;0.40;;;;;;;4.79;88.67;101417.88;5041651;28;20209;-70
2022/02/11 11:54:35;;;;;;;1.27;0.33;;;;;;;4.81;89.08;101426.63;5038037;28;20301;-70
2022/02/11 11:59:49;;;;;;;1.17;0.73;;;;;;;4.79;88.48;101444.25;5044720;28;20738;-71
2022/02/11 12:02:20;;;;;;;1.80;1.30;;;;;;;4.81;88.68;101442.44;5039066;28;20206;-70
2022/02/11 12:04:50;;;;;;;3.73;1.67;;;;;;;4.78;88.30;101447.81;5034187;28;20230;-71
2022/02/11 12:07:18;;;;;;;4.07;2.00;;;;;;;4.79;88.85;101446.03;5041349;28;20318;-70
2022/02/11 12:09:48;;;;;;;1.00;0.77;;;;;;;4.83;88.52;101460.88;5037448;28;20309;-72
2022/02/11 12:12:18;;;;;;;0.97;0.77;;;;;;;4.86;88.61;101461.66;5042641;28;20202;-71
2022/02/11 12:14:46;;;;;;;1.07;0.90;;;;;;;4.85;88.64;101457.28;5037788;28;20218;-71
2022/02/11 12:17:14;;;;;;;1.20;0.97;;;;;;;4.84;88.80;101463.47;5063136;28;20219;-71
2022/02/11 12:19:44;;;;;;;2.73;1.13;;;;;;;4.87;89.08;101460.75;5034833;28;20249;-70
2022/02/11 12:22:11;;;;;;;1.90;0.90;;;;;;;4.90;88.88;101470.34;5030126;28;20210;-71
2022/02/11 12:27:30;;;;;;;3.53;1.03;;;;;;;4.94;89.14;101484.34;5029046;28;20233;-71
2022/02/11 12:29:58;;;;;;;1.97;1.07;;;;;;;4.92;89.15;101491.44;5044313;28;20659;-70
2022/02/11 12:32:27;;;;;;;4.40;1.00;;;;;;;4.88;88.94;101495.91;5029683;28;20249;-71
2022/02/11 12:34:56;;;;;;;3.10;1.30;;;;;;;4.87;89.01;101507.38;5042209;28;20263;-70
2022/02/11 12:37:24;;;;;;;2.83;1.60;;;;;;;4.88;88.92;101523.19;5046838;28;20297;-70
2022/02/11 12:40:02;;;;;;;4.60;1.50;;;;;;;4.90;88.92;101533.69;5044957;28;20256;-70
2022/02/11 12:42:30;;;;;;;5.27;1.80;;;;;;;4.91;89.07;101542.50;5047447;28;20229;-70
2022/02/11 12:44:57;;;;;;;2.27;1.80;;;;;;;4.88;88.83;101546.94;5042166;28;20206;-69
2022/02/11 12:47:24;;;;;;;5.17;1.97;;;;;;;4.84;88.59;101547.91;5047082;28;20770;-71
2022/02/11 12:49:52;;;;;;;3.80;2.77;;;;;;;4.84;88.91;101553.19;5038442;28;20294;-70
2022/02/11 12:52:21;;;;;;;3.83;3.13;;;;;;;4.83;88.52;101571.72;5045653;28;20294;-69
2022/02/11 12:54:58;;;;;;;6.40;3.40;;;;;;;4.84;88.41;101574.31;5046329;28;20288;-70
2022/02/11 12:57:26;;;;;;;4.20;2.60;;;;;;;4.83;88.43;101579.66;5044858;28;20205;-71
2022/02/11 12:59:54;;;;;;;3.47;2.87;;;;;;;4.84;88.45;101589.28;5053435;28;20210;-70
2022/02/11 13:02:25;;;;;;;3.30;2.50;;;;;;;4.79;88.28;101602.59;5043949;28;20209;-70
2022/02/11 13:05:12;;;;;;;4.17;2.90;;;;;;;4.75;88.22;101600.06;5037373;28;20202;-69
2022/02/11 13:07:40;;;;;;;4.90;3.60;;;;;;;4.68;88.48;101631.00;5043199;28;20230;-70
2022/02/11 13:10:08;;;;;;;4.70;4.10;;;;;;;4.63;88.03;101627.63;5046223;28;20273;-70
2022/02/11 13:12:40;;;;;;;4.20;3.37;;;;;;;4.60;88.13;101637.38;5045007;28;20224;-69
2022/02/11 13:15:11;;;;;;;5.27;3.70;;;;;;;4.55;87.97;101640.13;5041538;28;20700;-68
2022/02/11 13:17:38;;;;;;;5.03;3.60;;;;;;;4.51;87.77;101649.88;5045281;28;20299;-68
2022/02/11 13:20:08;;;;;;;4.17;3.33;;;;;;;4.48;88.12;101664.88;5047296;28;20208;-69
2022/02/11 13:22:35;;;;;;;3.67;3.27;;;;;;;4.44;87.42;101679.06;5046594;28;20587;-68
2022/02/11 13:25:02;;;;;;;3.57;3.27;;;;;;;4.39;87.36;101686.19;5042194;28;20497;-69
2022/02/11 13:27:47;;;;;;;3.40;2.80;;;;;;;4.34;87.31;101701.25;5041741;28;20591;-68
2022/02/11 13:30:17;;;;;;;2.90;2.70;;;;;;;4.32;87.18;101708.31;5043566;28;20731;-70
2022/02/11 13:32:43;;;;;;;3.30;2.57;;;;;;;4.30;86.74;101710.16;5042008;28;20307;-69
2022/02/11 13:35:11;;;;;;;3.17;2.77;;;;;;;4.29;86.59;101724.22;5041358;28;20739;-68
2022/02/11 13:37:42;;;;;;;2.80;2.30;;;;;;;4.27;86.66;101729.53;5042863;28;20244;-69
2022/02/11 13:40:11;;;;;;;2.53;2.03;;;;;;;4.28;86.02;101743.59;5038289;28;20229;-70
2022/02/11 13:42:38;;;;;;;2.10;1.83;;;;;;;4.28;85.84;101740.94;5038796;28;20301;-68
2022/02/11 13:45:06;;;;;;;3.07;2.17;;;;;;;4.27;85.50;101755.91;5041371;28;20640;-68
2022/02/11 13:47:34;;;;;;;2.40;1.77;;;;;;;4.29;85.23;101759.38;5042668;28;20559;-69
2022/02/11 13:50:05;;;;;;;2.00;1.80;;;;;;;4.30;85.24;101773.44;5048083;28;20219;-69
2022/02/11 13:55:17;;;;;;;3.47;1.80;;;;;;;4.30;84.61;101792.72;5042689;28;20213;-69
2022/02/11 13:57:44;;;;;;;2.10;1.80;;;;;;;4.31;84.34;101793.59;5043567;28;20783;-68
2022/02/11 14:00:28;;;;;;;2.20;2.00;;;;;;;4.31;84.28;101798.88;5045819;28;20578;-68
2022/02/11 14:02:56;;;;;;;1.70;1.57;;;;;;;4.33;83.99;101812.91;5045509;28;20236;-69
2022/02/11 14:05:23;;;;;;;2.10;1.90;;;;;;;4.34;83.74;101827.84;5041009;28;20300;-69
2022/02/11 14:07:52;;;;;;;2.70;2.23;;;;;;;4.34;83.58;101828.69;5042623;28;20230;-69
2022/02/11 14:10:19;;;;;;;3.40;1.90;;;;;;;4.36;83.68;101828.69;5049423;28;20680;-67
2022/02/11 14:12:46;;;;;;;2.53;2.10;;;;;;;4.37;83.24;101846.25;5042357;28;20210;-68
2022/02/11 14:15:13;;;;;;;3.93;2.40;;;;;;;4.40;83.34;101854.09;5047132;28;20308;-69
2022/02/11 14:17:40;;;;;;;3.60;2.00;;;;;;;4.42;83.59;101862.88;5045672;28;20224;-67
2022/02/11 14:20:09;;;;;;;3.53;2.27;;;;;;;4.42;83.18;101865.50;5043125;28;20218;-69
2022/02/11 14:22:36;;;;;;;2.87;2.30;;;;;;;4.44;83.18;101866.34;5048098;28;20209;-66
2022/02/11 14:25:02;;;;;;;3.27;2.67;;;;;;;4.44;83.38;101877.75;5049485;28;20217;-69
2022/02/11 14:27:31;;;;;;;4.37;2.63;;;;;;;4.46;83.16;101885.66;5043067;28;20291;-67
2022/02/11 14:29:58;;;;;;;4.23;2.47;;;;;;;4.45;83.31;101890.06;5048880;28;20212;-69
2022/02/11 14:32:25;;;;;;;7.53;3.10;;;;;;;4.43;83.40;101899.75;5039505;28;20234;-68
2022/02/11 14:34:51;;;;;;;3.53;2.73;;;;;;;4.45;83.05;101900.59;5047210;28;20288;-68
2022/02/11 14:37:21;;;;;;;4.13;2.47;;;;;;;4.45;82.89;101905.00;5050750;28;20636;-67
2022/02/11 14:39:48;;;;;;;3.70;2.60;;;;;;;4.47;83.03;101916.41;5041543;28;20221;-71
2022/02/11 14:42:14;;;;;;;2.73;2.43;;;;;;;4.46;82.98;101914.66;5056157;28;20292;-68
2022/02/11 14:44:41;;;;;;;3.63;2.53;;;;;;;4.46;83.05;101920.81;5035812;28;20271;-68
2022/02/11 14:47:09;;;;;;;4.33;2.53;;;;;;;4.48;83.27;101929.53;5039709;28;20783;-68
2022/02/11 14:49:36;;;;;;;7.03;2.30;;;;;;;4.47;83.37;101942.78;5041155;28;20509;-68